createdAt,value
2019-03-28T00:01:44.713Z,5.20
2019-03-28T00:06:52.484Z,5.20
2019-03-28T00:12:00.565Z,5.10
2019-03-28T00:17:08.658Z,5.10
2019-03-28T00:22:26.571Z,5.00
2019-03-28T00:27:34.644Z,5.00
2019-03-28T00:32:42.954Z,5.00
2019-03-28T00:37:50.912Z,5.10
2019-03-28T00:42:57.366Z,5.10
2019-03-28T00:48:06.827Z,5.10
2019-03-28T00:53:14.670Z,5.10
2019-03-28T00:58:22.739Z,5.10
2019-03-28T01:03:30.702Z,5.00
2019-03-28T01:08:37.995Z,5.00
2019-03-28T01:13:46.007Z,4.90
2019-03-28T01:18:53.065Z,5.00
2019-03-28T01:24:00.830Z,5.00
2019-03-28T01:29:08.767Z,4.90
2019-03-28T01:34:16.570Z,5.00
2019-03-28T01:39:23.051Z,5.00
2019-03-28T01:44:32.882Z,5.00
2019-03-28T01:49:40.225Z,5.00
2019-03-28T01:54:48.134Z,5.00
2019-03-28T01:59:56.055Z,5.00
2019-03-28T02:05:02.644Z,5.00
2019-03-28T02:10:10.211Z,4.80
2019-03-28T02:15:17.422Z,4.50
2019-03-28T02:20:24.220Z,4.40
2019-03-28T02:25:32.047Z,4.20
2019-03-28T02:30:40.428Z,3.90
2019-03-28T02:35:48.315Z,3.70
2019-03-28T02:40:54.817Z,3.80
2019-03-28T02:46:01.951Z,3.70
2019-03-28T02:51:08.957Z,3.70
2019-03-28T02:56:15.982Z,3.80
2019-03-28T03:01:22.851Z,4.00
2019-03-28T03:06:29.384Z,4.30
2019-03-28T03:11:37.709Z,4.50
2019-03-28T03:16:45.322Z,4.50
2019-03-28T03:21:51.924Z,4.70
2019-03-28T03:26:58.635Z,4.90
2019-03-28T03:32:05.933Z,5.00
2019-03-28T03:37:13.818Z,5.00
2019-03-28T03:42:21.462Z,5.00
2019-03-28T03:47:28.105Z,5.10
2019-03-28T03:52:35.724Z,5.10
2019-03-28T03:57:42.571Z,4.90
2019-03-28T04:02:49.331Z,5.00
2019-03-28T04:21:58.446Z,4.90
2019-03-28T05:41:17.499Z,4.70
2019-03-28T05:46:36.569Z,4.60
2019-03-28T05:51:44.596Z,4.60
2019-03-28T05:56:53.822Z,4.60
2019-03-28T06:02:01.830Z,4.70
2019-03-28T06:07:11.216Z,4.70
2019-03-28T06:12:19.251Z,4.80
2019-03-28T06:17:26.304Z,4.90
2019-03-28T06:22:39.552Z,5.10
2019-03-28T06:27:50.840Z,5.20
2019-03-28T06:32:58.940Z,5.30
2019-03-28T06:38:06.934Z,5.50
2019-03-28T06:43:15.727Z,5.70
2019-03-28T06:48:26.052Z,5.90
2019-03-28T06:53:36.932Z,6.10
2019-03-28T06:58:44.993Z,6.30
2019-03-28T07:03:52.609Z,6.50
2019-03-28T07:09:00.257Z,6.70
2019-03-28T07:14:08.009Z,7.00
2019-03-28T07:19:17.779Z,7.10
2019-03-28T07:24:29.132Z,7.00
2019-03-28T07:29:49.835Z,7.10
2019-03-28T07:34:46.630Z,7.30
2019-03-28T07:39:59.981Z,7.60
2019-03-28T07:45:08.356Z,7.70
2019-03-28T07:50:15.741Z,7.90
2019-03-28T07:55:26.596Z,8.00
2019-03-28T08:00:35.138Z,8.40
2019-03-28T08:05:44.474Z,8.50
2019-03-28T08:11:03.907Z,8.60
2019-03-28T08:16:11.588Z,9.00
2019-03-28T08:21:19.492Z,9.30
2019-03-28T08:26:30.271Z,9.30
2019-03-28T08:31:43.768Z,10.00
2019-03-28T08:36:51.541Z,10.00
2019-03-28T08:41:58.316Z,10.00
2019-03-28T08:47:06.388Z,10.10
2019-03-28T08:52:13.035Z,10.30
2019-03-28T08:57:20.733Z,10.60
2019-03-28T09:02:27.458Z,10.80
2019-03-28T09:07:34.228Z,11.20
2019-03-28T09:12:41.850Z,11.20
2019-03-28T09:17:51.593Z,11.30
2019-03-28T09:22:58.978Z,11.10
2019-03-28T09:28:10.395Z,11.50
2019-03-28T09:33:17.691Z,11.50
2019-03-28T09:38:25.999Z,11.90
2019-03-28T09:43:34.288Z,12.20
2019-03-28T09:48:42.324Z,11.70
2019-03-28T09:53:50.234Z,12.10
2019-03-28T09:59:00.312Z,12.50
2019-03-28T10:04:08.243Z,12.90
2019-03-28T10:09:19.733Z,12.70
2019-03-28T10:14:27.772Z,13.00
2019-03-28T10:19:37.635Z,13.20
2019-03-28T10:24:45.525Z,13.20
2019-03-28T10:29:53.285Z,13.30
2019-03-28T10:35:01.956Z,13.30
2019-03-28T10:40:11.660Z,13.60
2019-03-28T10:45:18.651Z,13.60
2019-03-28T10:50:39.665Z,14.10
2019-03-28T10:55:39.116Z,14.40
2019-03-28T11:00:47.460Z,14.70
2019-03-28T11:05:59.248Z,14.80
2019-03-28T11:11:07.014Z,15.00
2019-03-28T11:16:15.319Z,15.90
2019-03-28T11:21:23.736Z,17.60
2019-03-28T11:26:31.757Z,18.70
2019-03-28T11:31:46.686Z,19.00
2019-03-28T11:36:55.155Z,19.00
2019-03-28T11:42:05.843Z,19.40
2019-03-28T11:47:14.718Z,21.50
2019-03-28T11:52:26.315Z,21.50
2019-03-28T11:57:36.366Z,21.40
2019-03-28T12:02:44.343Z,21.40
2019-03-28T12:07:53.756Z,20.00
2019-03-28T12:13:02.497Z,19.40
2019-03-28T12:18:11.640Z,18.90
2019-03-28T12:23:19.267Z,20.70
2019-03-28T12:28:29.473Z,21.70
2019-03-28T12:33:36.508Z,21.90
2019-03-28T12:38:44.626Z,20.90
2019-03-28T12:43:57.483Z,21.30
2019-03-28T12:49:07.586Z,22.40
2019-03-28T12:54:15.153Z,21.50
2019-03-28T12:59:29.585Z,20.00
2019-03-28T13:04:37.822Z,18.70
2019-03-28T13:09:49.110Z,17.80
2019-03-28T13:15:00.181Z,18.00
2019-03-28T13:20:12.648Z,19.80
2019-03-28T13:25:21.101Z,18.00
2019-03-28T13:30:28.898Z,17.40
2019-03-28T13:35:36.399Z,17.30
2019-03-28T13:40:46.100Z,17.50
2019-03-28T13:45:56.960Z,16.90
2019-03-28T13:51:13.092Z,17.80
2019-03-28T13:56:20.923Z,18.50
2019-03-28T14:01:29.018Z,18.20
2019-03-28T14:06:44.741Z,16.80
2019-03-28T14:11:56.499Z,16.80
2019-03-28T14:17:03.522Z,16.50
2019-03-28T14:22:14.244Z,16.40
2019-03-28T14:27:24.118Z,16.40
2019-03-28T14:32:34.908Z,17.50
2019-03-28T14:37:41.553Z,16.40
2019-03-28T14:42:56.149Z,17.70
2019-03-28T14:54:49.173Z,18.40
2019-03-28T15:00:30.785Z,18.90
2019-03-28T15:05:41.922Z,19.90
2019-03-28T15:10:51.646Z,18.30
2019-03-28T15:15:58.861Z,16.60
2019-03-28T15:21:07.695Z,15.40
2019-03-28T15:26:16.614Z,15.80
2019-03-28T15:31:30.216Z,16.20
2019-03-28T15:36:37.991Z,16.90
2019-03-28T15:42:05.559Z,18.10
2019-03-28T15:47:26.890Z,18.00
2019-03-28T15:52:39.609Z,18.90
2019-03-28T15:57:48.988Z,18.10
2019-03-28T16:02:56.034Z,16.90
2019-03-28T16:08:06.631Z,14.80
2019-03-28T16:13:17.665Z,13.90
2019-03-28T16:18:27.793Z,13.80
2019-03-28T16:23:39.530Z,13.70
2019-03-28T16:28:47.457Z,13.70
2019-03-28T16:34:06.719Z,14.60
2019-03-28T16:51:38.360Z,13.00
2019-03-28T16:56:50.588Z,12.80
2019-03-28T17:01:59.610Z,12.70
2019-03-28T17:07:08.554Z,12.50
2019-03-28T17:12:15.833Z,12.40
2019-03-28T17:17:24.132Z,12.20
2019-03-28T17:22:32.528Z,12.10
2019-03-28T17:27:39.647Z,12.00
2019-03-28T17:32:46.521Z,11.90
2019-03-28T17:37:54.886Z,11.60
2019-03-28T17:43:03.052Z,11.50
2019-03-28T17:48:09.635Z,11.40
2019-03-28T17:53:16.318Z,11.20
2019-03-28T17:58:25.663Z,11.10
2019-03-28T18:03:32.644Z,10.90
2019-03-28T18:08:39.419Z,10.80
2019-03-28T18:13:46.353Z,10.70
2019-03-28T18:18:53.066Z,10.70
2019-03-28T18:24:01.296Z,10.60
2019-03-28T18:29:08.514Z,10.50
2019-03-28T18:34:15.612Z,10.40
2019-03-28T18:39:22.704Z,10.40
2019-03-28T18:44:29.763Z,10.30
2019-03-28T18:49:41.763Z,10.20
2019-03-28T18:54:49.294Z,10.10
2019-03-28T18:59:56.507Z,10.00
2019-03-28T19:05:18.750Z,9.90
2019-03-28T19:10:13.367Z,9.90
2019-03-28T19:15:20.079Z,9.90
2019-03-28T19:20:27.314Z,9.80
2019-03-28T19:25:35.814Z,9.80
2019-03-28T19:30:43.843Z,9.70
2019-03-28T19:35:52.807Z,9.70
2019-03-28T19:40:59.367Z,9.60
2019-03-28T19:46:07.297Z,9.60
2019-03-28T19:51:13.980Z,9.50
2019-03-28T19:56:21.567Z,9.50
2019-03-28T20:01:28.284Z,9.30
2019-03-28T20:06:35.916Z,9.30
2019-03-28T20:11:42.973Z,9.30
2019-03-28T20:16:49.685Z,9.30
2019-03-28T20:21:59.526Z,9.20
2019-03-28T20:27:07.798Z,9.20
2019-03-28T20:32:14.912Z,9.20
2019-03-28T20:37:23.448Z,9.10
2019-03-28T20:42:31.448Z,9.10
2019-03-28T20:47:40.200Z,9.00
2019-03-28T20:53:08.373Z,8.90
2019-03-28T20:58:14.788Z,8.80
2019-03-28T21:03:23.079Z,8.80
2019-03-28T21:08:31.069Z,8.80
2019-03-28T21:13:39.417Z,8.70
2019-03-28T21:18:47.394Z,8.60
2019-03-28T21:23:57.158Z,8.60
2019-03-28T21:29:04.930Z,8.50
2019-03-28T21:34:11.652Z,8.40
2019-03-28T21:39:22.657Z,8.40
2019-03-28T21:44:30.171Z,8.30
2019-03-28T21:49:42.846Z,8.30
2019-03-28T21:54:52.432Z,8.20
2019-03-28T22:00:00.299Z,8.10
2019-03-28T22:05:08.344Z,8.10
2019-03-28T22:10:18.866Z,8.10
2019-03-28T22:15:26.681Z,8.00
2019-03-28T22:20:34.243Z,7.90
2019-03-28T22:25:42.420Z,7.90
2019-03-28T22:30:49.731Z,7.80
2019-03-28T22:35:56.394Z,7.80
2019-03-28T22:41:03.592Z,7.80
2019-03-28T22:46:11.842Z,7.70
2019-03-28T22:51:19.893Z,7.70
2019-03-28T22:56:48.146Z,7.60
2019-03-28T23:09:10.309Z,7.60
2019-03-28T23:14:18.949Z,7.50
2019-03-28T23:19:27.103Z,7.50
2019-03-28T23:24:35.055Z,7.40
2019-03-28T23:29:42.979Z,7.50
2019-03-28T23:34:50.870Z,7.40
2019-03-28T23:39:58.914Z,7.40
2019-03-28T23:45:08.740Z,7.30
2019-03-28T23:50:15.374Z,7.30
2019-03-28T23:55:22.025Z,7.20
